Time;durP1;ratioP1;P1;durP2;ratioP2;P2;SDS_P1;SDS_P2;PMS_P1;PMS_P2;Temp;Humidity;BMP_temperature;BMP_pressure;BME280_temperature;BME280_humidity;BME280_pressure;Samples;Min_cycle;Max_cycle;Signal;HPM_P1;HPM_P2
2021/06/21 00:01:19;;;;;;;9.13;2.25;;;;;;;20.07;68.30;97964.00;3558914;40;20054;-67
2021/06/21 00:03:48;;;;;;;9.48;2.08;;;;;;;20.12;68.32;97973.91;3559866;40;20041;-66
2021/06/21 00:06:15;;;;;;;7.47;2.22;;;;;;;20.06;68.29;97972.34;3559374;40;20053;-66
2021/06/21 00:08:43;;;;;;;6.85;1.83;;;;;;;20.08;67.66;97975.53;3559597;40;20429;-65
2021/06/21 00:11:11;;;;;;;5.90;2.10;;;;;;;20.12;67.83;97977.41;3566836;40;20049;-66
2021/06/21 00:13:40;;;;;;;7.28;2.35;;;;;;;20.13;67.51;97983.59;3559673;40;20414;-66
2021/06/21 00:16:08;;;;;;;8.45;2.10;;;;;;;20.10;67.43;97982.25;3559376;40;20053;-65
2021/06/21 00:18:36;;;;;;;6.70;2.20;;;;;;;20.02;67.51;97977.44;3559638;40;20046;-65
2021/06/21 00:21:05;;;;;;;5.68;2.22;;;;;;;20.03;67.29;97968.31;3559779;40;20076;-67
2021/06/21 00:23:33;;;;;;;4.68;1.90;;;;;;;19.97;67.44;97964.84;3559702;40;20069;-66
2021/06/21 00:26:01;;;;;;;4.70;1.60;;;;;;;19.91;67.01;97965.94;3558280;40;20422;-66
2021/06/21 00:28:29;;;;;;;6.03;2.20;;;;;;;19.80;67.42;97956.34;3559186;40;20056;-67
2021/06/21 00:30:58;;;;;;;8.00;2.15;;;;;;;19.74;67.17;97954.72;3558502;40;20046;-66
2021/06/21 00:33:26;;;;;;;4.55;1.90;;;;;;;19.66;67.38;97958.75;3559725;40;20058;-66
2021/06/21 00:35:53;;;;;;;5.70;1.83;;;;;;;19.55;67.27;97971.38;3558184;40;20339;-66
2021/06/21 00:38:21;;;;;;;5.45;1.95;;;;;;;19.49;67.72;97963.59;3559458;40;20261;-67
2021/06/21 00:40:49;;;;;;;6.95;2.15;;;;;;;19.55;67.37;97965.19;3566707;40;20058;-66
2021/06/21 00:43:17;;;;;;;7.53;2.00;;;;;;;19.61;67.47;97957.97;3559493;40;20053;-66
2021/06/21 00:45:45;;;;;;;6.20;2.92;;;;;;;19.67;67.29;97960.38;3559594;40;20323;-66
2021/06/21 00:48:14;;;;;;;6.30;1.85;;;;;;;19.64;67.25;97965.50;3559170;40;20053;-66
2021/06/21 00:50:42;;;;;;;9.23;2.17;;;;;;;19.69;67.05;97952.06;3562251;40;20053;-66
2021/06/21 00:53:10;;;;;;;8.68;1.90;;;;;;;19.67;67.17;97949.66;3563266;40;20053;-65
2021/06/21 00:55:37;;;;;;;5.50;1.42;;;;;;;19.69;66.63;97947.50;3563153;40;20353;-66
2021/06/21 00:58:05;;;;;;;8.35;2.05;;;;;;;19.66;67.05;97949.94;3562521;40;20048;-67
2021/06/21 01:00:33;;;;;;;12.10;1.98;;;;;;;19.59;66.96;97938.66;3559346;40;20391;-65
2021/06/21 01:03:04;;;;;;;5.88;1.70;;;;;;;19.49;66.49;97942.97;3559154;40;20403;-66
2021/06/21 01:05:35;;;;;;;8.48;1.85;;;;;;;19.49;67.13;97942.16;3559459;40;20128;-67
2021/06/21 01:08:05;;;;;;;7.57;1.88;;;;;;;19.48;66.72;97946.72;3559021;40;20053;-66
2021/06/21 01:10:35;;;;;;;9.18;2.00;;;;;;;19.43;66.69;97936.03;3561220;40;20487;-67
2021/06/21 01:13:33;;;;;;;6.43;1.90;;;;;;;19.46;66.61;97940.00;3563041;40;20034;-66
2021/06/21 01:16:09;;;;;;;5.93;2.13;;;;;;;19.36;67.16;97940.84;3561674;40;20078;-66
2021/06/21 01:18:40;;;;;;;8.15;2.08;;;;;;;19.29;66.94;97943.00;3558354;40;20058;-67
2021/06/21 01:21:46;;;;;;;8.40;2.78;;;;;;;19.25;67.35;97937.38;3558312;40;20062;-67
2021/06/21 01:24:52;;;;;;;13.85;3.42;;;;;;;19.22;67.81;97931.75;3555775;40;20042;-67
2021/06/21 01:27:34;;;;;;;8.57;2.55;;;;;;;19.16;68.03;97932.84;3559152;40;20319;-67
2021/06/21 01:30:07;;;;;;;8.32;1.92;;;;;;;19.07;67.70;97929.09;3559458;40;20053;-66
2021/06/21 01:32:42;;;;;;;9.63;2.30;;;;;;;19.03;68.22;97923.47;3559325;40;20049;-66
2021/06/21 01:35:17;;;;;;;6.28;2.10;;;;;;;19.03;68.38;97913.56;3558416;40;20297;-67
2021/06/21 01:37:47;;;;;;;10.48;2.25;;;;;;;18.92;68.31;97925.34;3558753;40;20050;-65
2021/06/21 01:40:19;;;;;;;7.45;2.13;;;;;;;18.91;68.80;97937.13;3558841;40;20290;-67
2021/06/21 01:42:51;;;;;;;8.20;2.10;;;;;;;18.88;68.58;97936.84;3558176;40;20061;-67
2021/06/21 01:45:19;;;;;;;9.80;2.22;;;;;;;18.89;68.39;97935.78;3558698;40;20046;-67
2021/06/21 01:47:50;;;;;;;7.63;2.05;;;;;;;18.89;68.47;97933.09;3561940;40;20046;-66
2021/06/21 01:50:20;;;;;;;6.25;2.03;;;;;;;18.88;68.41;97948.34;3561369;40;20403;-65
2021/06/21 01:52:53;;;;;;;5.35;2.13;;;;;;;18.85;68.58;97951.56;3560907;40;20049;-67
2021/06/21 01:55:24;;;;;;;7.45;2.60;;;;;;;18.88;68.86;97955.59;3561678;40;20042;-67
2021/06/21 01:57:53;;;;;;;7.82;1.88;;;;;;;18.89;68.87;97952.63;3560042;40;20049;-66
2021/06/21 02:00:21;;;;;;;11.48;2.78;;;;;;;18.89;68.35;97949.97;3559340;40;20060;-67
2021/06/21 02:02:53;;;;;;;7.82;1.73;;;;;;;18.87;68.75;97948.63;3559517;40;20057;-65
2021/06/21 02:05:22;;;;;;;7.85;1.83;;;;;;;18.87;68.79;97951.31;3615748;23;20045;-59
2021/06/21 02:07:52;;;;;;;5.90;2.20;;;;;;;18.89;68.52;97949.97;3559023;40;20049;-58
2021/06/21 02:10:22;;;;;;;7.47;2.40;;;;;;;18.83;68.53;97948.38;3559093;40;20052;-58
2021/06/21 02:12:52;;;;;;;7.13;2.30;;;;;;;18.85;68.50;97942.72;3558854;40;20057;-59
2021/06/21 02:15:22;;;;;;;5.40;1.63;;;;;;;18.83;68.50;97940.34;3558874;40;20053;-60
2021/06/21 02:17:53;;;;;;;5.68;1.58;;;;;;;18.74;69.10;97945.41;3557763;40;20163;-59
2021/06/21 02:20:23;;;;;;;7.93;2.00;;;;;;;18.66;69.08;97945.09;3558653;40;20056;-60
2021/06/21 02:22:51;;;;;;;8.60;1.88;;;;;;;18.61;69.32;97942.41;3558716;40;20085;-59
2021/06/21 02:25:18;;;;;;;6.00;1.75;;;;;;;18.58;69.19;97943.75;3561270;40;20085;-61
2021/06/21 02:27:48;;;;;;;10.32;1.90;;;;;;;18.60;69.56;97946.94;3563076;40;20058;-60
2021/06/21 02:30:17;;;;;;;6.00;2.00;;;;;;;18.56;69.56;97945.88;3562713;40;20074;-61
2021/06/21 02:32:47;;;;;;;7.80;1.95;;;;;;;18.54;69.54;97951.50;3560520;40;20338;-59
2021/06/21 02:35:18;;;;;;;9.75;1.80;;;;;;;18.56;69.74;97959.25;3560132;40;20054;-60
2021/06/21 02:37:46;;;;;;;6.38;1.80;;;;;;;18.57;69.42;97955.50;3558787;40;20431;-62
2021/06/21 02:40:19;;;;;;;8.18;1.85;;;;;;;18.50;69.35;97958.44;3558737;40;20030;-61
2021/06/21 02:42:46;;;;;;;5.10;1.70;;;;;;;18.51;69.65;97959.25;3558991;40;20044;-60
2021/06/21 02:45:14;;;;;;;8.80;2.05;;;;;;;18.49;70.11;97956.03;3557660;40;20111;-60
2021/06/21 02:47:44;;;;;;;10.02;2.10;;;;;;;18.46;69.98;97952.03;3558378;40;20060;-60
2021/06/21 02:50:13;;;;;;;9.77;1.80;;;;;;;18.53;69.79;97949.06;3558435;40;20053;-59
2021/06/21 02:52:53;;;;;;;9.23;1.95;;;;;;;18.54;69.82;97940.78;3559256;40;20054;-59
2021/06/21 02:55:23;;;;;;;4.97;1.50;;;;;;;18.60;69.92;97954.19;3559422;40;20038;-60
2021/06/21 02:58:01;;;;;;;6.97;1.77;;;;;;;18.63;69.77;97967.84;3559371;40;20053;-59
2021/06/21 03:00:30;;;;;;;5.78;2.08;;;;;;;18.59;69.77;97960.63;3558986;40;20411;-59
2021/06/21 03:02:59;;;;;;;5.72;1.60;;;;;;;18.48;69.75;97965.94;3560130;40;20395;-60
2021/06/21 03:05:29;;;;;;;13.10;2.00;;;;;;;18.52;69.90;97958.19;3560896;40;20049;-60
2021/06/21 03:08:02;;;;;;;7.97;2.47;;;;;;;18.51;70.48;97978.00;3560167;40;20066;-60
2021/06/21 03:10:30;;;;;;;8.73;2.40;;;;;;;18.54;69.91;97986.28;3560435;40;20049;-61
2021/06/21 03:12:59;;;;;;;7.18;2.13;;;;;;;18.57;69.94;97987.63;3561216;40;20053;-59
2021/06/21 03:15:28;;;;;;;11.70;2.58;;;;;;;18.54;70.13;97977.47;3560784;40;20090;-60
2021/06/21 03:17:57;;;;;;;5.82;2.03;;;;;;;18.53;70.38;97978.50;3560399;40;20077;-60
2021/06/21 03:20:25;;;;;;;8.10;2.08;;;;;;;18.59;70.48;97980.16;3561820;40;20399;-59
2021/06/21 03:22:56;;;;;;;11.57;1.90;;;;;;;18.61;70.37;97986.03;3562813;40;20049;-59
2021/06/21 03:25:29;;;;;;;5.22;1.60;;;;;;;18.62;70.05;97989.53;3563042;40;20050;-59
2021/06/21 03:27:59;;;;;;;10.35;2.13;;;;;;;18.50;70.51;97977.19;3561281;40;20066;-58
2021/06/21 03:30:27;;;;;;;6.63;1.88;;;;;;;18.52;70.56;97975.03;3560458;40;20030;-58
2021/06/21 03:32:55;;;;;;;12.57;2.53;;;;;;;18.46;70.46;97983.34;3558913;40;20057;-60
2021/06/21 03:35:23;;;;;;;12.02;2.10;;;;;;;18.50;70.60;97974.50;3559364;40;20065;-61
2021/06/21 03:37:52;;;;;;;4.93;1.67;;;;;;;18.52;70.91;97982.25;3561105;40;20049;-61
2021/06/21 03:40:20;;;;;;;9.68;2.35;;;;;;;18.55;70.81;97987.91;3560516;40;20379;-61
2021/06/21 03:42:49;;;;;;;10.98;2.10;;;;;;;18.55;70.51;97985.22;3559003;40;20391;-59
2021/06/21 03:45:17;;;;;;;8.77;2.38;;;;;;;18.50;70.52;97985.22;3558428;40;20049;-60
2021/06/21 03:47:46;;;;;;;10.30;2.55;;;;;;;18.59;70.64;97982.81;3558162;40;20090;-59
2021/06/21 03:50:14;;;;;;;9.57;2.05;;;;;;;18.49;70.38;97988.13;3559081;40;20136;-60
2021/06/21 03:52:42;;;;;;;7.28;2.00;;;;;;;18.55;70.73;97992.44;3560587;40;20414;-60
2021/06/21 03:55:11;;;;;;;5.80;2.35;;;;;;;18.55;71.05;98001.28;3560959;40;20081;-60
2021/06/21 03:57:40;;;;;;;7.00;1.98;;;;;;;18.56;70.96;97997.53;3560399;40;20053;-59
2021/06/21 04:00:13;;;;;;;7.53;1.95;;;;;;;18.61;70.37;97996.72;3559068;40;20052;-59
2021/06/21 04:02:41;;;;;;;4.95;2.10;;;;;;;18.63;70.74;98002.66;3559503;40;20403;-59
2021/06/21 04:05:10;;;;;;;6.30;2.00;;;;;;;18.61;70.38;98003.97;3567274;40;20065;-59
2021/06/21 04:07:37;;;;;;;5.50;1.70;;;;;;;18.67;70.69;98003.72;3559496;40;20102;-59
2021/06/21 04:10:07;;;;;;;7.53;2.05;;;;;;;18.65;70.67;98013.88;3559720;40;20049;-59
2021/06/21 04:12:36;;;;;;;8.30;2.03;;;;;;;18.65;70.77;98019.22;3559545;40;20093;-60
2021/06/21 04:15:06;;;;;;;6.20;2.10;;;;;;;18.60;70.57;98007.72;3559545;40;20060;-60
2021/06/21 04:17:36;;;;;;;5.75;1.92;;;;;;;18.56;71.05;98028.84;3559621;40;20030;-60
2021/06/21 04:20:04;;;;;;;6.15;1.85;;;;;;;18.65;70.87;98027.25;3559580;40;20202;-60
2021/06/21 04:22:32;;;;;;;4.35;1.90;;;;;;;18.77;70.37;98021.69;3559523;40;20049;-60
2021/06/21 04:25:00;;;;;;;7.10;2.10;;;;;;;18.80;70.27;98027.34;3559422;40;20038;-60
2021/06/21 04:27:27;;;;;;;4.45;1.50;;;;;;;18.80;69.79;98016.63;3559509;40;20061;-61
2021/06/21 04:29:55;;;;;;;4.38;1.45;;;;;;;18.84;70.08;98016.91;3559376;40;20058;-59
2021/06/21 04:32:23;;;;;;;5.82;1.60;;;;;;;18.83;69.80;98009.16;3559496;40;20049;-60
2021/06/21 04:34:52;;;;;;;5.93;1.60;;;;;;;18.88;69.71;98012.63;3558407;40;20135;-60
2021/06/21 04:37:22;;;;;;;9.20;2.40;;;;;;;18.93;69.66;98011.81;3559243;40;20053;-61
2021/06/21 04:39:50;;;;;;;11.18;2.03;;;;;;;18.98;69.44;98009.16;3559551;40;20054;-61
2021/06/21 04:42:18;;;;;;;6.85;1.80;;;;;;;19.17;68.86;97988.81;3559509;40;20406;-61
2021/06/21 04:44:46;;;;;;;6.20;1.90;;;;;;;19.30;68.48;97990.94;3558472;40;20387;-61
2021/06/21 04:47:14;;;;;;;6.13;1.83;;;;;;;19.36;68.30;97991.75;3558994;40;20111;-60
2021/06/21 04:49:42;;;;;;;6.07;1.70;;;;;;;19.49;67.69;97987.72;3558502;40;20213;-59
2021/06/21 04:52:12;;;;;;;7.00;1.70;;;;;;;19.60;67.52;97994.69;3558250;40;20058;-60
2021/06/21 04:54:40;;;;;;;11.00;2.30;;;;;;;19.60;67.59;97992.00;3559069;40;20057;-60
2021/06/21 04:57:08;;;;;;;6.10;1.63;;;;;;;19.69;67.23;97995.78;3559043;40;20057;-60
2021/06/21 04:59:36;;;;;;;6.93;1.85;;;;;;;19.86;66.84;97997.34;3559780;40;20050;-60
2021/06/21 05:02:04;;;;;;;11.85;5.50;;;;;;;20.01;66.74;97998.09;3559982;40;20378;-60
2021/06/21 05:04:32;;;;;;;6.38;1.70;;;;;;;20.07;66.30;98001.56;3559768;40;20129;-62
2021/06/21 05:07:00;;;;;;;10.27;2.08;;;;;;;19.94;66.63;97994.91;3558547;40;20092;-60
2021/06/21 05:09:30;;;;;;;6.05;2.10;;;;;;;19.84;66.44;98005.66;3558318;40;20058;-60
2021/06/21 05:11:57;;;;;;;4.93;1.65;;;;;;;19.70;66.73;98002.72;3558401;40;20054;-60
2021/06/21 05:14:29;;;;;;;8.52;1.90;;;;;;;19.76;66.66;98008.91;3559714;40;20045;-60
2021/06/21 05:16:57;;;;;;;8.00;1.83;;;;;;;19.76;66.49;98017.75;3559229;40;20057;-61
2021/06/21 05:19:25;;;;;;;5.45;1.58;;;;;;;19.77;66.85;98015.88;3559148;40;20041;-60
2021/06/21 05:21:53;;;;;;;8.23;2.05;;;;;;;19.89;66.70;98026.31;3559397;40;20422;-60
2021/06/21 05:24:20;;;;;;;5.18;1.85;;;;;;;20.07;65.95;98025.72;3559267;40;20403;-60
2021/06/21 05:26:49;;;;;;;4.82;1.60;;;;;;;20.20;65.68;98022.44;3559063;40;20326;-59
2021/06/21 05:29:17;;;;;;;5.80;2.00;;;;;;;20.19;65.63;98014.69;3559267;40;20054;-59
2021/06/21 05:31:45;;;;;;;7.68;2.35;;;;;;;20.19;65.35;98014.69;3559024;40;20053;-58
2021/06/21 05:34:13;;;;;;;4.80;1.77;;;;;;;20.25;65.37;98017.06;3559055;40;20053;-59
2021/06/21 05:36:41;;;;;;;7.75;2.38;;;;;;;20.44;65.09;98013.75;3558989;40;20050;-59
2021/06/21 05:39:09;;;;;;;5.53;1.75;;;;;;;20.37;65.43;98019.44;3559169;40;20346;-60
2021/06/21 05:41:36;;;;;;;6.00;1.70;;;;;;;20.42;64.97;98019.41;3559868;40;20038;-60
2021/06/21 05:44:05;;;;;;;7.32;2.00;;;;;;;20.57;64.66;98023.13;3558874;40;20074;-61
2021/06/21 05:46:33;;;;;;;3.33;1.88;;;;;;;20.67;64.50;98007.78;3558889;40;20085;-60
2021/06/21 05:49:01;;;;;;;5.50;1.95;;;;;;;20.68;63.93;98009.38;3559165;40;20045;-59
2021/06/21 05:51:29;;;;;;;6.68;2.20;;;;;;;20.71;64.07;98010.72;3566574;40;20038;-59
2021/06/21 05:53:57;;;;;;;4.55;1.75;;;;;;;20.58;63.90;98016.69;3558893;40;20046;-58
2021/06/21 05:56:25;;;;;;;7.32;1.88;;;;;;;20.32;63.91;98026.69;3559177;40;20057;-58
2021/06/21 05:58:52;;;;;;;6.00;1.83;;;;;;;20.22;64.63;98017.63;3559246;40;20070;-58
2021/06/21 06:01:21;;;;;;;7.93;1.65;;;;;;;20.19;64.51;98020.03;3559358;40;20053;-58
2021/06/21 06:03:50;;;;;;;6.05;1.70;;;;;;;20.35;64.48;98020.78;3566291;40;20041;-58
2021/06/21 06:06:18;;;;;;;7.63;2.10;;;;;;;20.34;64.24;98014.63;3557983;40;20068;-58
2021/06/21 06:08:46;;;;;;;7.63;1.92;;;;;;;20.39;64.30;98019.97;3559022;40;20057;-59
2021/06/21 06:11:14;;;;;;;6.07;1.88;;;;;;;20.26;63.84;98029.41;3559074;40;20362;-58
2021/06/21 06:13:42;;;;;;;6.47;2.00;;;;;;;20.20;64.31;98029.69;3558851;40;20057;-58
2021/06/21 06:16:13;;;;;;;5.95;1.85;;;;;;;20.21;64.13;98026.75;3559148;40;20330;-58
2021/06/21 06:18:44;;;;;;;3.95;1.45;;;;;;;20.24;64.62;98031.56;3559032;40;20046;-58
2021/06/21 06:21:12;;;;;;;7.15;2.00;;;;;;;20.27;64.29;98032.91;3559118;40;20052;-58
2021/06/21 06:23:40;;;;;;;4.95;1.73;;;;;;;20.37;64.25;98029.34;3559116;40;20050;-58
2021/06/21 06:26:08;;;;;;;5.80;2.10;;;;;;;20.44;63.66;98025.31;3558967;40;20048;-58
2021/06/21 06:28:38;;;;;;;6.05;1.90;;;;;;;20.49;63.94;98029.88;3561042;40;20046;-61
2021/06/21 06:31:07;;;;;;;4.70;1.70;;;;;;;20.35;63.75;98026.16;3562040;40;20042;-59
2021/06/21 06:33:35;;;;;;;7.05;1.90;;;;;;;20.24;64.10;98028.88;3560837;40;20034;-58
2021/06/21 06:36:06;;;;;;;8.20;2.13;;;;;;;20.29;64.27;98031.56;3559219;40;20419;-59
2021/06/21 06:38:34;;;;;;;6.00;2.25;;;;;;;20.32;64.15;98038.22;3559337;40;20049;-59
2021/06/21 06:41:05;;;;;;;7.22;2.00;;;;;;;20.19;64.33;98036.94;3559218;40;20402;-60
2021/06/21 06:43:33;;;;;;;7.30;1.92;;;;;;;20.21;64.39;98045.53;3559107;40;20045;-60
2021/06/21 06:46:01;;;;;;;5.93;2.30;;;;;;;20.19;64.53;98052.25;3559086;40;20061;-60
2021/06/21 06:48:30;;;;;;;4.38;1.92;;;;;;;20.21;64.35;98052.78;3558077;40;20054;-59
2021/06/21 06:50:58;;;;;;;4.50;1.85;;;;;;;20.15;64.28;98053.88;3559349;40;20054;-60
2021/06/21 06:53:36;;;;;;;5.20;1.90;;;;;;;20.10;64.67;98052.00;3559924;40;20057;-59
2021/06/21 06:59:04;;;;;;;8.98;2.20;;;;;;;20.00;64.56;98058.22;3531102;40;20118;-59
2021/06/21 07:01:32;;;;;;;5.55;2.00;;;;;;;20.08;64.63;98058.69;3528392;40;20051;-59
2021/06/21 07:04:01;;;;;;;5.45;2.13;;;;;;;20.14;64.31;98063.78;3541848;40;20042;-59
2021/06/21 07:06:29;;;;;;;5.07;2.15;;;;;;;20.16;64.15;98061.63;3558711;40;20042;-59
2021/06/21 07:08:58;;;;;;;6.28;2.15;;;;;;;20.25;64.20;98065.38;3558767;40;20046;-59
2021/06/21 07:11:26;;;;;;;7.60;2.33;;;;;;;20.30;63.91;98069.94;3558470;40;20042;-60
2021/06/21 07:13:54;;;;;;;8.40;2.17;;;;;;;20.35;63.74;98075.28;3558282;40;20096;-60
2021/06/21 07:16:22;;;;;;;6.35;2.35;;;;;;;20.34;63.51;98072.88;3557314;40;20060;-59
2021/06/21 07:18:50;;;;;;;9.35;3.25;;;;;;;20.48;63.01;98065.81;3558313;40;20411;-60
2021/06/21 07:21:17;;;;;;;5.03;2.10;;;;;;;20.64;62.60;98072.78;3558470;40;20050;-59
2021/06/21 07:23:45;;;;;;;5.18;1.90;;;;;;;20.67;62.24;98072.22;3558632;40;20052;-59
2021/06/21 07:26:14;;;;;;;4.95;2.00;;;;;;;20.66;61.72;98073.31;3558211;40;20046;-59
2021/06/21 07:28:42;;;;;;;6.88;2.20;;;;;;;20.59;62.17;98080.84;3565844;40;20046;-59
2021/06/21 07:31:10;;;;;;;6.20;2.03;;;;;;;20.60;61.62;98073.59;3558494;40;20053;-59
2021/06/21 07:33:38;;;;;;;5.60;2.00;;;;;;;20.65;61.77;98078.94;3558750;40;20045;-60
2021/06/21 07:36:07;;;;;;;6.07;1.98;;;;;;;20.73;61.92;98083.72;3558394;40;20045;-59
2021/06/21 07:38:35;;;;;;;4.35;2.00;;;;;;;20.85;61.52;98080.72;3560024;40;20050;-60
2021/06/21 07:41:04;;;;;;;3.47;1.63;;;;;;;20.97;61.29;98076.63;3560341;40;20090;-60
2021/06/21 07:43:33;;;;;;;7.00;2.22;;;;;;;21.00;60.57;98086.03;3560885;40;20034;-59
2021/06/21 07:46:01;;;;;;;5.90;1.90;;;;;;;21.09;60.66;98081.66;3562720;40;20042;-60
2021/06/21 07:48:28;;;;;;;3.83;2.00;;;;;;;21.27;60.71;98086.41;3562911;40;20332;-60
2021/06/21 07:50:56;;;;;;;4.78;2.05;;;;;;;21.21;60.24;98084.00;3562065;40;20050;-66
2021/06/21 07:53:24;;;;;;;6.53;1.92;;;;;;;21.27;60.17;98082.91;3562785;40;20060;-59
2021/06/21 07:55:51;;;;;;;6.20;2.05;;;;;;;21.20;60.18;98079.72;3561644;40;20078;-59
2021/06/21 07:58:19;;;;;;;6.72;1.52;;;;;;;21.14;60.50;98087.00;3563065;40;20062;-60
2021/06/21 08:00:48;;;;;;;4.18;1.70;;;;;;;21.16;60.57;98087.53;3562433;40;20078;-60
2021/06/21 08:03:16;;;;;;;7.57;2.38;;;;;;;21.03;60.65;98090.84;3563416;40;20403;-60
2021/06/21 08:05:48;;;;;;;9.40;2.28;;;;;;;20.97;60.90;98102.69;3562634;40;20060;-60
2021/06/21 08:08:16;;;;;;;6.53;2.28;;;;;;;21.19;60.59;98094.25;3561289;40;20038;-60
2021/06/21 08:10:44;;;;;;;6.05;2.28;;;;;;;21.27;59.86;98086.41;3560088;40;20117;-60
2021/06/21 08:13:12;;;;;;;6.97;2.70;;;;;;;21.24;59.98;98086.94;3561042;40;20094;-60
2021/06/21 08:15:40;;;;;;;6.57;1.95;;;;;;;21.36;59.66;98092.00;3560795;40;20104;-60
2021/06/21 08:18:10;;;;;;;6.97;1.90;;;;;;;21.44;59.17;98090.63;3560332;40;20050;-61
2021/06/21 08:20:42;;;;;;;4.97;2.10;;;;;;;21.45;59.40;98087.63;3560484;40;20050;-60
2021/06/21 08:23:10;;;;;;;4.82;1.83;;;;;;;21.61;59.16;98085.63;3559070;40;20051;-61
2021/06/21 08:25:38;;;;;;;3.83;1.63;;;;;;;21.89;58.53;98089.41;3559720;40;20045;-60
2021/06/21 08:28:06;;;;;;;3.47;1.45;;;;;;;22.00;58.46;98090.09;3559672;40;20058;-60
2021/06/21 08:30:34;;;;;;;7.78;2.63;;;;;;;22.23;57.80;98085.88;3559780;40;20061;-59
2021/06/21 08:33:02;;;;;;;6.32;1.98;;;;;;;22.49;57.17;98091.75;3560819;40;20061;-59
2021/06/21 08:35:31;;;;;;;5.72;1.80;;;;;;;22.46;56.45;98092.38;3560073;40;20364;-60
2021/06/21 08:37:59;;;;;;;3.97;1.60;;;;;;;22.36;56.44;98095.16;3560997;40;20364;-61
2021/06/21 08:40:27;;;;;;;7.10;1.95;;;;;;;22.24;57.00;98092.84;3562767;40;20057;-60
2021/06/21 08:42:55;;;;;;;4.95;2.10;;;;;;;22.40;56.86;98096.19;3562644;40;20041;-59
2021/06/21 08:45:23;;;;;;;3.17;2.30;;;;;;;22.50;56.47;98096.09;3561113;40;20054;-60
2021/06/21 08:47:52;;;;;;;3.97;1.70;;;;;;;22.46;56.35;98103.13;3560176;40;20340;-59
2021/06/21 08:50:21;;;;;;;6.40;1.85;;;;;;;22.54;55.42;98117.88;3560323;40;20056;-60
2021/06/21 08:52:51;;;;;;;5.60;2.30;;;;;;;22.48;55.37;98106.31;3559679;40;20416;-59
2021/06/21 08:55:18;;;;;;;2.92;1.83;;;;;;;22.44;55.34;98108.00;3562125;40;20061;-60
2021/06/21 08:57:47;;;;;;;7.50;2.13;;;;;;;22.36;54.25;98112.09;3562014;40;20057;-60
2021/06/21 09:00:18;;;;;;;2.80;1.90;;;;;;;22.67;54.48;98115.25;3562974;40;20046;-61
2021/06/21 09:02:48;;;;;;;4.72;2.00;;;;;;;22.86;53.28;98123.41;3561599;40;20414;-60
2021/06/21 09:05:16;;;;;;;6.55;2.50;;;;;;;22.87;53.61;98111.53;3560976;40;20057;-60
2021/06/21 09:07:46;;;;;;;5.50;1.80;;;;;;;22.87;52.93;98108.81;3559462;40;20049;-60
2021/06/21 09:10:27;;;;;;;6.25;2.20;;;;;;;22.74;53.47;98120.31;3559677;40;20045;-60
2021/06/21 09:13:09;;;;;;;4.85;1.90;;;;;;;22.85;53.37;98120.97;3559707;40;20427;-60
2021/06/21 09:15:40;;;;;;;8.30;2.25;;;;;;;22.73;53.52;98124.88;3558703;40;20061;-60
2021/06/21 09:18:28;;;;;;;5.75;2.53;;;;;;;22.69;53.71;98129.22;3558338;40;20053;-61
2021/06/21 09:21:21;;;;;;;3.28;1.90;;;;;;;22.60;54.04;98130.97;3559849;40;20042;-60
2021/06/21 09:24:15;;;;;;;6.00;2.25;;;;;;;22.77;53.93;98132.41;3558917;40;20343;-60
2021/06/21 09:26:45;;;;;;;5.20;2.15;;;;;;;22.79;53.34;98127.53;3559155;40;20054;-60
2021/06/21 09:29:14;;;;;;;15.38;3.60;;;;;;;22.81;53.39;98131.53;3558922;40;20062;-61
2021/06/21 09:31:53;;;;;;;9.20;2.30;;;;;;;22.88;53.21;98115.81;3559437;40;20046;-60
2021/06/21 09:34:23;;;;;;;6.80;2.20;;;;;;;22.88;53.06;98117.72;3560215;40;20433;-60
2021/06/21 09:36:51;;;;;;;6.15;2.60;;;;;;;23.28;52.62;98129.88;3561461;40;20053;-60
2021/06/21 09:39:21;;;;;;;5.57;2.17;;;;;;;23.62;51.36;98118.81;3562169;40;20026;-60
2021/06/21 09:42:11;;;;;;;6.30;2.42;;;;;;;23.90;50.60;98122.44;3562073;40;20081;-61
2021/06/21 09:44:42;;;;;;;6.35;2.10;;;;;;;23.96;49.88;98126.66;3561558;40;20058;-60
2021/06/21 09:47:21;;;;;;;4.38;2.58;;;;;;;24.14;49.96;98122.28;3569879;40;20054;-59
2021/06/21 09:50:14;;;;;;;5.85;2.42;;;;;;;24.35;49.28;98120.03;3561765;40;20069;-61
2021/06/21 09:52:45;;;;;;;4.47;1.90;;;;;;;24.56;48.00;98128.56;3568698;40;20053;-62
2021/06/21 09:55:20;;;;;;;2.85;1.85;;;;;;;24.55;47.68;98129.66;3561323;40;20062;-61
2021/06/21 09:58:08;;;;;;;5.18;2.00;;;;;;;24.49;47.70;98128.16;3560870;40;20532;-61
2021/06/21 10:00:37;;;;;;;5.38;2.00;;;;;;;24.36;48.17;98137.03;3558677;40;20133;-62
2021/06/21 10:03:07;;;;;;;4.68;1.70;;;;;;;24.37;48.50;98134.03;3561165;40;20074;-59
2021/06/21 10:05:39;;;;;;;2.83;1.88;;;;;;;24.22;48.05;98145.91;3560704;40;20068;-59
2021/06/21 10:08:08;;;;;;;3.33;2.22;;;;;;;24.06;48.19;98141.09;3560140;40;20090;-61
2021/06/21 10:10:36;;;;;;;4.93;1.83;;;;;;;24.33;48.70;98143.00;3560646;40;20049;-62
2021/06/21 10:13:06;;;;;;;2.20;1.48;;;;;;;24.70;47.52;98145.59;3560250;40;20045;-60
2021/06/21 10:15:36;;;;;;;4.78;2.20;;;;;;;24.98;46.98;98144.75;3560135;40;20049;-60
2021/06/21 10:18:06;;;;;;;3.00;1.83;;;;;;;25.03;46.30;98137.34;3559467;40;20057;-61
2021/06/21 10:20:34;;;;;;;3.40;1.98;;;;;;;24.68;46.64;98145.06;3558649;40;20057;-60
2021/06/21 10:23:06;;;;;;;3.08;1.90;;;;;;;24.34;47.21;98147.34;3559479;40;20061;-59
2021/06/21 10:25:35;;;;;;;5.40;2.42;;;;;;;24.36;47.59;98156.72;3559761;40;20050;-61
2021/06/21 10:28:04;;;;;;;3.53;2.08;;;;;;;24.58;46.28;98166.09;3559404;40;20049;-60
2021/06/21 10:30:33;;;;;;;2.67;1.55;;;;;;;24.70;46.15;98151.00;3559832;40;20030;-59
2021/06/21 10:33:02;;;;;;;2.22;1.40;;;;;;;24.86;45.59;98164.19;3559674;40;20093;-60
2021/06/21 10:35:32;;;;;;;5.55;2.10;;;;;;;25.09;45.34;98163.19;3560488;40;20057;-59
2021/06/21 10:38:04;;;;;;;2.70;1.70;;;;;;;25.30;44.95;98163.56;3559684;40;20050;-61
2021/06/21 10:40:53;;;;;;;4.28;2.17;;;;;;;25.28;44.45;98157.66;3559681;40;20054;-59
2021/06/21 10:43:45;;;;;;;3.47;2.35;;;;;;;25.41;44.44;98162.22;3560115;40;20041;-60
2021/06/21 10:46:23;;;;;;;3.85;1.95;;;;;;;25.34;44.60;98161.03;3558519;40;20057;-59
2021/06/21 10:49:35;;;;;;;2.97;1.88;;;;;;;25.20;44.64;98161.88;3559490;40;20062;-58
2021/06/21 10:52:36;;;;;;;4.85;1.90;;;;;;;25.27;44.70;98160.66;3566606;40;20038;-59
2021/06/21 10:55:46;;;;;;;9.55;2.75;;;;;;;25.31;45.00;98159.75;3559132;40;20416;-59
2021/06/21 10:58:46;;;;;;;5.40;1.52;;;;;;;25.42;44.15;98152.19;3559270;40;20094;-60
2021/06/21 11:01:23;;;;;;;2.95;1.80;;;;;;;25.52;43.91;98156.59;3559041;40;20041;-60
2021/06/21 11:03:52;;;;;;;5.13;2.63;;;;;;;25.59;43.77;98157.75;3559425;40;20042;-60
2021/06/21 11:06:41;;;;;;;2.25;1.77;;;;;;;25.66;43.39;98157.31;3559728;40;20547;-58
2021/06/21 11:09:11;;;;;;;4.97;1.90;;;;;;;25.39;43.42;98140.09;3560609;40;20084;-58
2021/06/21 11:11:48;;;;;;;5.07;1.88;;;;;;;25.36;44.30;98151.53;3560618;40;20388;-59
2021/06/21 11:14:19;;;;;;;4.65;2.20;;;;;;;25.30;44.17;98143.81;3562105;40;20033;-60
2021/06/21 11:16:51;;;;;;;4.13;1.70;;;;;;;25.03;44.60;98150.88;3560651;40;20030;-59
2021/06/21 11:19:41;;;;;;;4.07;1.70;;;;;;;25.14;45.09;98148.75;3562278;40;20111;-59
2021/06/21 11:22:09;;;;;;;7.22;2.40;;;;;;;25.25;44.94;98143.94;3561363;40;20072;-60
2021/06/21 11:24:49;;;;;;;4.13;1.75;;;;;;;25.30;44.56;98144.63;3560668;40;20049;-60
2021/06/21 11:27:19;;;;;;;3.08;1.67;;;;;;;25.28;44.95;98130.59;3560453;40;20108;-58
2021/06/21 11:29:48;;;;;;;4.15;2.10;;;;;;;25.46;44.88;98145.06;3560473;40;20053;-59
2021/06/21 11:32:19;;;;;;;6.07;3.10;;;;;;;25.69;44.80;98133.16;3560314;40;20050;-60
2021/06/21 11:34:49;;;;;;;3.28;1.73;;;;;;;25.59;44.34;98133.38;3559131;40;20054;-59
2021/06/21 11:37:35;;;;;;;2.33;1.65;;;;;;;25.67;44.20;98135.34;3560135;40;20073;-57
2021/06/21 11:40:29;;;;;;;5.13;2.10;;;;;;;26.01;43.47;98136.75;3561903;40;20058;-59
2021/06/21 11:43:17;;;;;;;4.80;2.00;;;;;;;26.22;43.22;98141.63;3561717;40;20094;-59
2021/06/21 11:45:55;;;;;;;3.25;1.70;;;;;;;26.03;43.23;98134.50;3565118;40;20054;-59
2021/06/21 11:48:27;;;;;;;2.15;1.65;;;;;;;25.78;42.39;98135.16;3565234;40;20053;-59
2021/06/21 11:50:56;;;;;;;20.08;4.03;;;;;;;25.79;43.12;98128.63;3561765;40;20053;-59
2021/06/21 11:53:25;;;;;;;8.55;2.60;;;;;;;25.81;43.35;98131.84;3560040;40;20041;-58